sensor_id;sensor_type;location;lat;lon;timestamp;pressure;altitude;pressure_sealevel;temperature;humidity
41886;BME280;27567;43.084;25.616;2023-04-09T00:01:11;98573.69;;;4.77;100.00
41886;BME280;27567;43.084;25.616;2023-04-09T00:03:55;98575.06;;;4.81;100.00
41886;BME280;27567;43.084;25.616;2023-04-09T00:06:38;98576.31;;;4.69;100.00
41886;BME280;27567;43.084;25.616;2023-04-09T00:09:23;98578.16;;;4.68;100.00
41886;BME280;27567;43.084;25.616;2023-04-09T00:12:07;98571.56;;;4.80;100.00
41886;BME280;27567;43.084;25.616;2023-04-09T00:14:51;98577.91;;;4.61;100.00
41886;BME280;27567;43.084;25.616;2023-04-09T00:17:34;98577.09;;;4.61;100.00
41886;BME280;27567;43.084;25.616;2023-04-09T00:20:19;98578.59;;;4.63;100.00
41886;BME280;27567;43.084;25.616;2023-04-09T00:23:03;98579.94;;;4.68;100.00
41886;BME280;27567;43.084;25.616;2023-04-09T00:25:47;98578.66;;;4.72;100.00
41886;BME280;27567;43.084;25.616;2023-04-09T00:28:31;98583.97;;;4.72;100.00
41886;BME280;27567;43.084;25.616;2023-04-09T00:31:15;98583.84;;;4.81;100.00
41886;BME280;27567;43.084;25.616;2023-04-09T00:33:59;98585.69;;;4.89;100.00
41886;BME280;27567;43.084;25.616;2023-04-09T00:36:43;98578.34;;;4.83;100.00
41886;BME280;27567;43.084;25.616;2023-04-09T00:39:26;98586.75;;;4.96;100.00
41886;BME280;27567;43.084;25.616;2023-04-09T00:42:13;98587.38;;;4.90;100.00
41886;BME280;27567;43.084;25.616;2023-04-09T00:44:58;98586.69;;;4.88;100.00
41886;BME280;27567;43.084;25.616;2023-04-09T00:47:42;98586.56;;;4.98;100.00
41886;BME280;27567;43.084;25.616;2023-04-09T00:50:28;98578.22;;;4.85;100.00
41886;BME280;27567;43.084;25.616;2023-04-09T00:53:13;98576.00;;;4.72;100.00
41886;BME280;27567;43.084;25.616;2023-04-09T00:55:57;98575.13;;;4.63;100.00
41886;BME280;27567;43.084;25.616;2023-04-09T00:58:41;98582.19;;;4.80;100.00
41886;BME280;27567;43.084;25.616;2023-04-09T01:01:25;98579.63;;;4.71;100.00
41886;BME280;27567;43.084;25.616;2023-04-09T01:04:09;98575.75;;;4.57;100.00
41886;BME280;27567;43.084;25.616;2023-04-09T01:06:58;98573.09;;;4.57;100.00
41886;BME280;27567;43.084;25.616;2023-04-09T01:09:55;98566.41;;;4.44;100.00
41886;BME280;27567;43.084;25.616;2023-04-09T01:13:22;98574.44;;;4.34;100.00
41886;BME280;27567;43.084;25.616;2023-04-09T01:15:59;98565.88;;;4.22;100.00
41886;BME280;27567;43.084;25.616;2023-04-09T01:19:00;98569.19;;;4.16;100.00
41886;BME280;27567;43.084;25.616;2023-04-09T01:21:45;98568.63;;;4.31;100.00
41886;BME280;27567;43.084;25.616;2023-04-09T01:24:35;98571.19;;;4.22;100.00
41886;BME280;27567;43.084;25.616;2023-04-09T01:27:22;98566.88;;;4.21;100.00
41886;BME280;27567;43.084;25.616;2023-04-09T01:30:08;98564.41;;;4.20;100.00
41886;BME280;27567;43.084;25.616;2023-04-09T01:32:54;98572.66;;;4.17;100.00
41886;BME280;27567;43.084;25.616;2023-04-09T01:35:42;98576.09;;;3.91;100.00
41886;BME280;27567;43.084;25.616;2023-04-09T01:38:27;98574.91;;;3.85;100.00
41886;BME280;27567;43.084;25.616;2023-04-09T01:41:14;98571.88;;;3.98;100.00
41886;BME280;27567;43.084;25.616;2023-04-09T01:44:01;98577.16;;;3.98;100.00
41886;BME280;27567;43.084;25.616;2023-04-09T01:46:47;98565.97;;;3.86;100.00
41886;BME280;27567;43.084;25.616;2023-04-09T01:49:31;98567.94;;;3.84;100.00
41886;BME280;27567;43.084;25.616;2023-04-09T01:52:16;98573.84;;;3.96;100.00
41886;BME280;27567;43.084;25.616;2023-04-09T01:54:59;98571.09;;;3.88;100.00
41886;BME280;27567;43.084;25.616;2023-04-09T01:57:43;98575.97;;;3.93;100.00
41886;BME280;27567;43.084;25.616;2023-04-09T02:00:34;98575.59;;;3.87;100.00
41886;BME280;27567;43.084;25.616;2023-04-09T02:03:24;98565.81;;;3.70;100.00
41886;BME280;27567;43.084;25.616;2023-04-09T02:08:53;98579.38;;;3.49;100.00
41886;BME280;27567;43.084;25.616;2023-04-09T02:11:40;98574.97;;;3.57;100.00
41886;BME280;27567;43.084;25.616;2023-04-09T02:14:25;98575.06;;;3.48;100.00
41886;BME280;27567;43.084;25.616;2023-04-09T02:17:11;98573.22;;;3.66;100.00
41886;BME280;27567;43.084;25.616;2023-04-09T02:19:56;98585.50;;;3.67;100.00
41886;BME280;27567;43.084;25.616;2023-04-09T02:22:39;98578.00;;;3.63;100.00
41886;BME280;27567;43.084;25.616;2023-04-09T02:25:24;98578.22;;;3.51;100.00
41886;BME280;27567;43.084;25.616;2023-04-09T02:28:09;98575.22;;;3.46;100.00
41886;BME280;27567;43.084;25.616;2023-04-09T02:30:53;98583.53;;;3.33;100.00
41886;BME280;27567;43.084;25.616;2023-04-09T02:33:37;98589.72;;;3.24;100.00
41886;BME280;27567;43.084;25.616;2023-04-09T02:36:21;98594.66;;;3.09;100.00
41886;BME280;27567;43.084;25.616;2023-04-09T02:39:05;98593.69;;;3.10;100.00
41886;BME280;27567;43.084;25.616;2023-04-09T02:41:49;98594.91;;;2.88;100.00
41886;BME280;27567;43.084;25.616;2023-04-09T02:44:33;98596.75;;;2.77;100.00
41886;BME280;27567;43.084;25.616;2023-04-09T02:47:18;98603.88;;;2.77;100.00
41886;BME280;27567;43.084;25.616;2023-04-09T02:50:02;98607.50;;;2.76;100.00
41886;BME280;27567;43.084;25.616;2023-04-09T02:52:46;98600.16;;;2.60;100.00
41886;BME280;27567;43.084;25.616;2023-04-09T02:55:30;98596.00;;;2.47;100.00
41886;BME280;27567;43.084;25.616;2023-04-09T02:58:14;98604.78;;;2.58;100.00
41886;BME280;27567;43.084;25.616;2023-04-09T03:00:58;98603.38;;;2.53;100.00
41886;BME280;27567;43.084;25.616;2023-04-09T03:03:42;98600.75;;;2.44;100.00
41886;BME280;27567;43.084;25.616;2023-04-09T03:06:26;98605.50;;;2.50;100.00
41886;BME280;27567;43.084;25.616;2023-04-09T03:09:11;98610.88;;;2.58;100.00
41886;BME280;27567;43.084;25.616;2023-04-09T03:11:55;98612.72;;;2.58;100.00
41886;BME280;27567;43.084;25.616;2023-04-09T03:14:40;98609.22;;;2.57;100.00
41886;BME280;27567;43.084;25.616;2023-04-09T03:17:24;98612.00;;;2.55;100.00
41886;BME280;27567;43.084;25.616;2023-04-09T03:20:10;98601.44;;;2.55;100.00
41886;BME280;27567;43.084;25.616;2023-04-09T03:22:54;98608.97;;;2.40;100.00
41886;BME280;27567;43.084;25.616;2023-04-09T03:25:38;98611.09;;;2.37;100.00
41886;BME280;27567;43.084;25.616;2023-04-09T03:28:22;98614.84;;;2.34;100.00
41886;BME280;27567;43.084;25.616;2023-04-09T03:31:06;98619.13;;;2.45;100.00
41886;BME280;27567;43.084;25.616;2023-04-09T03:33:50;98621.53;;;2.29;100.00
41886;BME280;27567;43.084;25.616;2023-04-09T03:36:34;98623.59;;;2.45;100.00
41886;BME280;27567;43.084;25.616;2023-04-09T03:39:18;98613.84;;;2.45;100.00
41886;BME280;27567;43.084;25.616;2023-04-09T03:42:02;98617.75;;;2.41;100.00
41886;BME280;27567;43.084;25.616;2023-04-09T03:44:46;98618.28;;;2.54;100.00
41886;BME280;27567;43.084;25.616;2023-04-09T03:47:31;98622.34;;;2.49;100.00
41886;BME280;27567;43.084;25.616;2023-04-09T03:50:15;98618.47;;;2.33;100.00
41886;BME280;27567;43.084;25.616;2023-04-09T03:52:59;98619.59;;;2.31;100.00
41886;BME280;27567;43.084;25.616;2023-04-09T03:55:44;98623.13;;;2.69;100.00
41886;BME280;27567;43.084;25.616;2023-04-09T03:58:28;98627.19;;;2.63;100.00
41886;BME280;27567;43.084;25.616;2023-04-09T04:01:12;98623.72;;;2.63;100.00
41886;BME280;27567;43.084;25.616;2023-04-09T04:03:56;98627.84;;;2.75;100.00
41886;BME280;27567;43.084;25.616;2023-04-09T04:06:40;98631.50;;;3.02;100.00
41886;BME280;27567;43.084;25.616;2023-04-09T04:09:24;98624.38;;;3.12;100.00
41886;BME280;27567;43.084;25.616;2023-04-09T04:12:08;98622.13;;;3.08;100.00
41886;BME280;27567;43.084;25.616;2023-04-09T04:14:52;98622.78;;;3.20;100.00
41886;BME280;27567;43.084;25.616;2023-04-09T04:17:36;98618.47;;;3.19;100.00
41886;BME280;27567;43.084;25.616;2023-04-09T04:20:20;98622.19;;;3.26;100.00
41886;BME280;27567;43.084;25.616;2023-04-09T04:23:04;98622.25;;;3.44;100.00
41886;BME280;27567;43.084;25.616;2023-04-09T04:25:48;98622.31;;;3.52;100.00
41886;BME280;27567;43.084;25.616;2023-04-09T04:28:32;98618.44;;;3.46;100.00
41886;BME280;27567;43.084;25.616;2023-04-09T04:31:16;98614.13;;;3.45;100.00
41886;BME280;27567;43.084;25.616;2023-04-09T04:34:02;98626.72;;;3.61;100.00
41886;BME280;27567;43.084;25.616;2023-04-09T04:36:45;98623.88;;;3.73;100.00
41886;BME280;27567;43.084;25.616;2023-04-09T04:39:30;98626.41;;;3.46;100.00
41886;BME280;27567;43.084;25.616;2023-04-09T04:42:14;98623.25;;;3.61;100.00
41886;BME280;27567;43.084;25.616;2023-04-09T04:44:59;98631.72;;;3.65;100.00
41886;BME280;27567;43.084;25.616;2023-04-09T04:47:43;98627.41;;;3.64;100.00
41886;BME280;27567;43.084;25.616;2023-04-09T04:50:28;98631.88;;;3.63;100.00
41886;BME280;27567;43.084;25.616;2023-04-09T04:53:12;98624.44;;;4.03;100.00
41886;BME280;27567;43.084;25.616;2023-04-09T04:55:56;98623.41;;;3.78;100.00
41886;BME280;27567;43.084;25.616;2023-04-09T04:58:41;98639.31;;;3.78;100.00
41886;BME280;27567;43.084;25.616;2023-04-09T05:01:25;98631.97;;;3.89;100.00
41886;BME280;27567;43.084;25.616;2023-04-09T05:04:09;98635.91;;;3.85;100.00
41886;BME280;27567;43.084;25.616;2023-04-09T05:06:54;98643.34;;;3.82;100.00
41886;BME280;27567;43.084;25.616;2023-04-09T05:09:38;98636.81;;;3.94;100.00
41886;BME280;27567;43.084;25.616;2023-04-09T05:12:22;98648.19;;;4.04;100.00
41886;BME280;27567;43.084;25.616;2023-04-09T05:15:07;98632.78;;;4.26;100.00
41886;BME280;27567;43.084;25.616;2023-04-09T05:17:51;98637.63;;;4.31;100.00
41886;BME280;27567;43.084;25.616;2023-04-09T05:20:35;98637.50;;;4.32;100.00
41886;BME280;27567;43.084;25.616;2023-04-09T05:23:20;98637.78;;;4.29;100.00
41886;BME280;27567;43.084;25.616;2023-04-09T05:26:04;98636.41;;;4.70;100.00
41886;BME280;27567;43.084;25.616;2023-04-09T05:28:48;98631.44;;;5.01;100.00
41886;BME280;27567;43.084;25.616;2023-04-09T05:31:33;98635.19;;;5.25;100.00
41886;BME280;27567;43.084;25.616;2023-04-09T05:34:18;98631.31;;;5.54;100.00
41886;BME280;27567;43.084;25.616;2023-04-09T05:37:02;98632.84;;;5.73;100.00
41886;BME280;27567;43.084;25.616;2023-04-09T05:39:46;98647.69;;;5.84;100.00
41886;BME280;27567;43.084;25.616;2023-04-09T05:42:30;98648.84;;;5.90;100.00
41886;BME280;27567;43.084;25.616;2023-04-09T05:45:14;98646.56;;;6.11;100.00
41886;BME280;27567;43.084;25.616;2023-04-09T05:47:59;98653.88;;;6.09;100.00
41886;BME280;27567;43.084;25.616;2023-04-09T05:50:52;98655.22;;;6.13;100.00
41886;BME280;27567;43.084;25.616;2023-04-09T05:53:36;98652.91;;;6.35;100.00
41886;BME280;27567;43.084;25.616;2023-04-09T05:56:20;98646.75;;;6.51;100.00
41886;BME280;27567;43.084;25.616;2023-04-09T05:59:07;98643.91;;;6.36;100.00
41886;BME280;27567;43.084;25.616;2023-04-09T06:01:52;98648.56;;;6.18;100.00
41886;BME280;27567;43.084;25.616;2023-04-09T06:04:36;98642.22;;;6.60;100.00
41886;BME280;27567;43.084;25.616;2023-04-09T06:07:20;98642.97;;;7.02;100.00
41886;BME280;27567;43.084;25.616;2023-04-09T06:10:04;98647.91;;;7.30;100.00
41886;BME280;27567;43.084;25.616;2023-04-09T06:12:49;98645.16;;;7.38;100.00
41886;BME280;27567;43.084;25.616;2023-04-09T06:15:33;98652.94;;;7.56;100.00
41886;BME280;27567;43.084;25.616;2023-04-09T06:18:17;98663.56;;;7.96;100.00
41886;BME280;27567;43.084;25.616;2023-04-09T06:21:06;98658.41;;;8.18;100.00
41886;BME280;27567;43.084;25.616;2023-04-09T06:23:50;98662.03;;;8.25;100.00
41886;BME280;27567;43.084;25.616;2023-04-09T06:26:36;98663.84;;;8.48;100.00
41886;BME280;27567;43.084;25.616;2023-04-09T06:29:20;98666.53;;;8.48;100.00
41886;BME280;27567;43.084;25.616;2023-04-09T06:32:04;98669.44;;;8.61;100.00
41886;BME280;27567;43.084;25.616;2023-04-09T06:34:48;98671.19;;;8.54;100.00
41886;BME280;27567;43.084;25.616;2023-04-09T06:37:32;98674.88;;;8.68;100.00
41886;BME280;27567;43.084;25.616;2023-04-09T06:40:17;98664.69;;;8.71;100.00
41886;BME280;27567;43.084;25.616;2023-04-09T06:43:01;98667.47;;;8.93;100.00
41886;BME280;27567;43.084;25.616;2023-04-09T06:45:44;98667.25;;;8.80;100.00
41886;BME280;27567;43.084;25.616;2023-04-09T06:48:29;98672.63;;;8.95;100.00
41886;BME280;27567;43.084;25.616;2023-04-09T06:51:14;98669.47;;;8.76;100.00
41886;BME280;27567;43.084;25.616;2023-04-09T06:53:58;98662.41;;;8.98;100.00
41886;BME280;27567;43.084;25.616;2023-04-09T06:56:42;98666.09;;;9.27;100.00
41886;BME280;27567;43.084;25.616;2023-04-09T06:59:26;98664.44;;;9.78;100.00
41886;BME280;27567;43.084;25.616;2023-04-09T07:02:10;98656.97;;;10.10;100.00
41886;BME280;27567;43.084;25.616;2023-04-09T07:04:54;98657.91;;;10.67;100.00
41886;BME280;27567;43.084;25.616;2023-04-09T07:07:39;98647.28;;;11.09;100.00
41886;BME280;27567;43.084;25.616;2023-04-09T07:10:23;98661.97;;;11.55;100.00
41886;BME280;27567;43.084;25.616;2023-04-09T07:13:07;98654.09;;;11.54;100.00
41886;BME280;27567;43.084;25.616;2023-04-09T07:15:51;98653.22;;;11.40;100.00
41886;BME280;27567;43.084;25.616;2023-04-09T07:18:35;98664.22;;;11.58;100.00
41886;BME280;27567;43.084;25.616;2023-04-09T07:21:19;98656.88;;;11.74;100.00
41886;BME280;27567;43.084;25.616;2023-04-09T07:24:03;98659.91;;;12.13;100.00
41886;BME280;27567;43.084;25.616;2023-04-09T07:26:48;98659.19;;;11.97;100.00
41886;BME280;27567;43.084;25.616;2023-04-09T07:29:32;98664.44;;;12.12;100.00
41886;BME280;27567;43.084;25.616;2023-04-09T07:32:16;98666.91;;;12.00;100.00
41886;BME280;27567;43.084;25.616;2023-04-09T07:35:01;98650.16;;;12.05;100.00
41886;BME280;27567;43.084;25.616;2023-04-09T07:37:46;98657.47;;;12.52;100.00
41886;BME280;27567;43.084;25.616;2023-04-09T07:40:30;98663.88;;;12.71;100.00
41886;BME280;27567;43.084;25.616;2023-04-09T07:43:13;98661.56;;;13.01;100.00
41886;BME280;27567;43.084;25.616;2023-04-09T07:45:58;98648.03;;;13.28;100.00
41886;BME280;27567;43.084;25.616;2023-04-09T07:48:42;98648.06;;;13.21;100.00
41886;BME280;27567;43.084;25.616;2023-04-09T07:51:26;98650.75;;;13.21;100.00
41886;BME280;27567;43.084;25.616;2023-04-09T07:54:10;98654.59;;;14.05;100.00
41886;BME280;27567;43.084;25.616;2023-04-09T07:56:54;98654.38;;;14.38;100.00
41886;BME280;27567;43.084;25.616;2023-04-09T07:59:39;98659.44;;;14.85;100.00
41886;BME280;27567;43.084;25.616;2023-04-09T08:02:23;98653.97;;;14.92;99.05
41886;BME280;27567;43.084;25.616;2023-04-09T08:05:08;98660.16;;;14.42;100.00
41886;BME280;27567;43.084;25.616;2023-04-09T08:07:52;98662.56;;;14.25;100.00
41886;BME280;27567;43.084;25.616;2023-04-09T08:10:36;98659.88;;;14.50;100.00
41886;BME280;27567;43.084;25.616;2023-04-09T08:13:22;98673.59;;;14.17;100.00
41886;BME280;27567;43.084;25.616;2023-04-09T08:16:07;98666.38;;;13.72;100.00
41886;BME280;27567;43.084;25.616;2023-04-09T08:18:51;98662.47;;;13.61;97.53
41886;BME280;27567;43.084;25.616;2023-04-09T08:21:40;98655.56;;;13.78;93.93
41886;BME280;27567;43.084;25.616;2023-04-09T08:24:27;98665.84;;;13.95;100.00
41886;BME280;27567;43.084;25.616;2023-04-09T08:27:11;98659.03;;;14.24;100.00
41886;BME280;27567;43.084;25.616;2023-04-09T08:29:55;98658.63;;;14.21;97.09
41886;BME280;27567;43.084;25.616;2023-04-09T08:32:40;98659.25;;;13.84;100.00
41886;BME280;27567;43.084;25.616;2023-04-09T08:35:24;98664.56;;;13.59;100.00
41886;BME280;27567;43.084;25.616;2023-04-09T08:38:08;98658.66;;;13.82;100.00
41886;BME280;27567;43.084;25.616;2023-04-09T08:40:51;98655.78;;;13.11;100.00
41886;BME280;27567;43.084;25.616;2023-04-09T08:43:36;98662.25;;;13.62;100.00
41886;BME280;27567;43.084;25.616;2023-04-09T08:46:24;98660.94;;;13.06;100.00
41886;BME280;27567;43.084;25.616;2023-04-09T08:49:09;98661.50;;;13.48;100.00
41886;BME280;27567;43.084;25.616;2023-04-09T08:51:56;98661.06;;;13.38;100.00
41886;BME280;27567;43.084;25.616;2023-04-09T08:54:40;98661.06;;;13.38;100.00
41886;BME280;27567;43.084;25.616;2023-04-09T08:57:26;98655.28;;;13.34;100.00
41886;BME280;27567;43.084;25.616;2023-04-09T09:00:10;98660.13;;;12.78;100.00
41886;BME280;27567;43.084;25.616;2023-04-09T09:03:06;98654.34;;;12.95;100.00
41886;BME280;27567;43.084;25.616;2023-04-09T09:05:50;98651.25;;;12.98;100.00
41886;BME280;27567;43.084;25.616;2023-04-09T09:08:34;98643.16;;;13.05;99.34
41886;BME280;27567;43.084;25.616;2023-04-09T09:11:26;98651.63;;;13.02;99.25
41886;BME280;27567;43.084;25.616;2023-04-09T09:14:15;98650.78;;;13.01;100.00
41886;BME280;27567;43.084;25.616;2023-04-09T09:19:46;98630.91;;;13.16;77.68
41886;BME280;27567;43.084;25.616;2023-04-09T09:22:47;98643.03;;;13.52;78.42
41886;BME280;27567;43.084;25.616;2023-04-09T09:25:40;98627.56;;;14.18;72.09
41886;BME280;27567;43.084;25.616;2023-04-09T09:28:33;98636.00;;;13.90;67.92
41886;BME280;27567;43.084;25.616;2023-04-09T09:31:20;98632.09;;;14.50;67.08
41886;BME280;27567;43.084;25.616;2023-04-09T09:34:07;98628.97;;;14.53;61.38
41886;BME280;27567;43.084;25.616;2023-04-09T09:36:51;98631.78;;;14.65;59.82
41886;BME280;27567;43.084;25.616;2023-04-09T09:39:42;98624.88;;;14.69;58.12
41886;BME280;27567;43.084;25.616;2023-04-09T09:42:29;98631.41;;;14.86;58.44
41886;BME280;27567;43.084;25.616;2023-04-09T09:45:17;98625.47;;;14.78;58.22
41886;BME280;27567;43.084;25.616;2023-04-09T09:48:04;98616.78;;;15.13;60.23
41886;BME280;27567;43.084;25.616;2023-04-09T09:50:49;98627.78;;;14.93;58.67
41886;BME280;27567;43.084;25.616;2023-04-09T09:53:40;98615.25;;;14.54;61.08
41886;BME280;27567;43.084;25.616;2023-04-09T09:56:30;98619.16;;;14.58;60.92
41886;BME280;27567;43.084;25.616;2023-04-09T09:59:20;98611.44;;;14.62;60.51
41886;BME280;27567;43.084;25.616;2023-04-09T10:02:13;98615.72;;;14.77;56.07
41886;BME280;27567;43.084;25.616;2023-04-09T10:05:00;98614.69;;;14.71;60.58
41886;BME280;27567;43.084;25.616;2023-04-09T10:07:44;98611.72;;;14.79;58.88
41886;BME280;27567;43.084;25.616;2023-04-09T10:10:33;98617.16;;;15.35;59.49
41886;BME280;27567;43.084;25.616;2023-04-09T10:13:39;98615.09;;;15.68;55.29
41886;BME280;27567;43.084;25.616;2023-04-09T10:16:24;98597.88;;;18.12;49.09
41886;BME280;27567;43.084;25.616;2023-04-09T10:19:10;98597.38;;;19.89;44.31
41886;BME280;27567;43.084;25.616;2023-04-09T10:22:02;98598.25;;;19.73;38.81
41886;BME280;27567;43.084;25.616;2023-04-09T10:24:49;98585.63;;;21.29;39.17
41886;BME280;27567;43.084;25.616;2023-04-09T10:27:35;98587.19;;;21.20;37.26
41886;BME280;27567;43.084;25.616;2023-04-09T10:30:34;98599.88;;;20.99;34.36
41886;BME280;27567;43.084;25.616;2023-04-09T10:33:23;98583.63;;;22.87;32.28
41886;BME280;27567;43.084;25.616;2023-04-09T10:36:10;98573.28;;;25.03;30.67
41886;BME280;27567;43.084;25.616;2023-04-09T10:38:56;98560.44;;;28.51;27.28
41886;BME280;27567;43.084;25.616;2023-04-09T10:41:41;98551.97;;;28.47;26.90
41886;BME280;27567;43.084;25.616;2023-04-09T10:44:28;98558.03;;;27.90;27.23
41886;BME280;27567;43.084;25.616;2023-04-09T10:47:31;98550.13;;;27.74;27.19
41886;BME280;27567;43.084;25.616;2023-04-09T10:50:22;98556.75;;;26.29;27.54
41886;BME280;27567;43.084;25.616;2023-04-09T10:53:23;98551.16;;;27.65;25.46
41886;BME280;27567;43.084;25.616;2023-04-09T10:56:13;98548.19;;;25.59;28.37
41886;BME280;27567;43.084;25.616;2023-04-09T10:58:58;98553.97;;;25.57;29.32
41886;BME280;27567;43.084;25.616;2023-04-09T11:01:51;98542.44;;;28.54;26.30
41886;BME280;27567;43.084;25.616;2023-04-09T11:08:07;98535.19;;;29.38;25.60
41886;BME280;27567;43.084;25.616;2023-04-09T11:10:55;98519.31;;;23.70;30.01
41886;BME280;27567;43.084;25.616;2023-04-09T11:13:41;98540.19;;;23.56;31.68
41886;BME280;27567;43.084;25.616;2023-04-09T11:16:28;98539.66;;;21.64;32.76
41886;BME280;27567;43.084;25.616;2023-04-09T11:19:13;98532.63;;;25.05;29.11
41886;BME280;27567;43.084;25.616;2023-04-09T11:21:58;98531.22;;;29.13;26.21
41886;BME280;27567;43.084;25.616;2023-04-09T11:24:43;98522.38;;;31.47;24.02
41886;BME280;27567;43.084;25.616;2023-04-09T11:27:27;98526.28;;;30.77;24.09
41886;BME280;27567;43.084;25.616;2023-04-09T11:30:11;98527.16;;;26.39;26.62
41886;BME280;27567;43.084;25.616;2023-04-09T11:32:55;98522.78;;;22.45;30.47
41886;BME280;27567;43.084;25.616;2023-04-09T11:35:40;98531.00;;;20.23;34.14
41886;BME280;27567;43.084;25.616;2023-04-09T11:38:24;98526.91;;;20.20;33.42
41886;BME280;27567;43.084;25.616;2023-04-09T11:41:08;98522.66;;;19.47;34.13
41886;BME280;27567;43.084;25.616;2023-04-09T11:43:55;98528.16;;;19.52;34.75
41886;BME280;27567;43.084;25.616;2023-04-09T11:46:40;98519.97;;;19.03;37.40
41886;BME280;27567;43.084;25.616;2023-04-09T11:49:24;98521.03;;;17.77;37.70
41886;BME280;27567;43.084;25.616;2023-04-09T11:52:09;98507.06;;;17.39;40.60
41886;BME280;27567;43.084;25.616;2023-04-09T11:54:53;98510.97;;;16.79;41.51
41886;BME280;27567;43.084;25.616;2023-04-09T11:57:43;98511.59;;;17.97;38.48
41886;BME280;27567;43.084;25.616;2023-04-09T12:00:28;98502.25;;;18.05;37.98
41886;BME280;27567;43.084;25.616;2023-04-09T12:03:12;98497.53;;;19.35;36.29
41886;BME280;27567;43.084;25.616;2023-04-09T12:06:00;98487.13;;;20.14;35.83
41886;BME280;27567;43.084;25.616;2023-04-09T12:08:44;98488.66;;;21.80;33.46
41886;BME280;27567;43.084;25.616;2023-04-09T12:11:30;98484.25;;;22.31;31.77
41886;BME280;27567;43.084;25.616;2023-04-09T12:14:16;98480.75;;;23.67;30.78
41886;BME280;27567;43.084;25.616;2023-04-09T12:17:01;98479.41;;;22.02;31.84
41886;BME280;27567;43.084;25.616;2023-04-09T12:19:47;98486.09;;;19.60;34.52
41886;BME280;27567;43.084;25.616;2023-04-09T12:22:31;98486.19;;;18.54;35.24
41886;BME280;27567;43.084;25.616;2023-04-09T12:25:15;98484.63;;;17.73;36.03
41886;BME280;27567;43.084;25.616;2023-04-09T12:28:00;98482.63;;;16.58;37.72
41886;BME280;27567;43.084;25.616;2023-04-09T12:30:44;98475.16;;;17.01;37.27
41886;BME280;27567;43.084;25.616;2023-04-09T12:33:29;98463.28;;;18.89;36.13
41886;BME280;27567;43.084;25.616;2023-04-09T12:36:14;98459.53;;;22.98;32.17
41886;BME280;27567;43.084;25.616;2023-04-09T12:38:58;98464.00;;;23.74;30.73
41886;BME280;27567;43.084;25.616;2023-04-09T12:41:42;98454.69;;;22.74;31.47
41886;BME280;27567;43.084;25.616;2023-04-09T12:44:26;98467.22;;;19.81;34.07
41886;BME280;27567;43.084;25.616;2023-04-09T12:47:10;98460.13;;;20.07;33.21
41886;BME280;27567;43.084;25.616;2023-04-09T12:49:54;98447.09;;;20.15;34.28
41886;BME280;27567;43.084;25.616;2023-04-09T12:52:38;98448.38;;;20.93;32.74
41886;BME280;27567;43.084;25.616;2023-04-09T12:55:23;98443.56;;;20.14;33.59
41886;BME280;27567;43.084;25.616;2023-04-09T12:58:07;98447.75;;;19.89;33.12
41886;BME280;27567;43.084;25.616;2023-04-09T13:00:51;98453.56;;;20.03;33.35
41886;BME280;27567;43.084;25.616;2023-04-09T13:03:36;98454.41;;;18.55;34.31
41886;BME280;27567;43.084;25.616;2023-04-09T13:06:20;98439.19;;;20.56;32.79
41886;BME280;27567;43.084;25.616;2023-04-09T13:09:05;98435.66;;;23.94;29.25
41886;BME280;27567;43.084;25.616;2023-04-09T13:11:49;98436.72;;;24.27;28.97
41886;BME280;27567;43.084;25.616;2023-04-09T13:14:34;98439.31;;;23.79;29.21
41886;BME280;27567;43.084;25.616;2023-04-09T13:17:19;98439.88;;;20.84;32.71
41886;BME280;27567;43.084;25.616;2023-04-09T13:20:03;98432.50;;;19.88;33.83
41886;BME280;27567;43.084;25.616;2023-04-09T13:22:47;98438.13;;;20.67;34.40
41886;BME280;27567;43.084;25.616;2023-04-09T13:25:31;98442.13;;;19.41;35.29
41886;BME280;27567;43.084;25.616;2023-04-09T13:28:15;98437.59;;;19.52;36.73
41886;BME280;27567;43.084;25.616;2023-04-09T13:30:59;98441.13;;;20.18;34.99
41886;BME280;27567;43.084;25.616;2023-04-09T13:33:44;98434.38;;;20.25;34.42
41886;BME280;27567;43.084;25.616;2023-04-09T13:36:29;98434.84;;;20.12;34.55
41886;BME280;27567;43.084;25.616;2023-04-09T13:39:14;98428.50;;;19.68;35.10
41886;BME280;27567;43.084;25.616;2023-04-09T13:41:58;98423.84;;;18.42;36.83
41886;BME280;27567;43.084;25.616;2023-04-09T13:44:46;98419.75;;;18.40;37.57
41886;BME280;27567;43.084;25.616;2023-04-09T13:47:29;98422.41;;;17.83;38.48
41886;BME280;27567;43.084;25.616;2023-04-09T13:50:13;98423.22;;;17.50;39.12
41886;BME280;27567;43.084;25.616;2023-04-09T13:52:58;98420.13;;;17.58;37.11
41886;BME280;27567;43.084;25.616;2023-04-09T13:55:45;98426.94;;;17.43;38.58
41886;BME280;27567;43.084;25.616;2023-04-09T13:58:29;98419.47;;;17.85;37.59
41886;BME280;27567;43.084;25.616;2023-04-09T14:01:13;98417.66;;;21.39;32.87
41886;BME280;27567;43.084;25.616;2023-04-09T14:03:58;98413.91;;;23.78;30.55
41886;BME280;27567;43.084;25.616;2023-04-09T14:06:42;98407.19;;;25.88;28.63
41886;BME280;27567;43.084;25.616;2023-04-09T14:09:26;98402.78;;;25.73;27.61
41886;BME280;27567;43.084;25.616;2023-04-09T14:12:10;98412.78;;;21.82;31.57
41886;BME280;27567;43.084;25.616;2023-04-09T14:14:53;98412.88;;;19.86;34.00
41886;BME280;27567;43.084;25.616;2023-04-09T14:17:38;98416.59;;;18.92;36.13
41886;BME280;27567;43.084;25.616;2023-04-09T14:20:22;98413.47;;;17.66;37.64
41886;BME280;27567;43.084;25.616;2023-04-09T14:23:07;98415.69;;;17.06;38.65
41886;BME280;27567;43.084;25.616;2023-04-09T14:25:51;98407.41;;;16.72;39.45
41886;BME280;27567;43.084;25.616;2023-04-09T14:28:36;98411.84;;;16.37;40.59
41886;BME280;27567;43.084;25.616;2023-04-09T14:31:20;98413.56;;;16.67;40.56